Truckee Tahoe Airport
KTRK : now visible

Airfield :











YOU CAN JOIN US ON...

 
LOGIN :

Register | Disclaimer

   EN    FR    IT 

 









Legend :    VFR   Marginal VFR   IFR   Intensive IFR   Very Intensive IFR
Visi :
Ceiling :
>= 8 km
>= 3000ft
5 to 8 km
1000 to 3000 ft
1500m to 5 km
500 to 1000 ft
800 to 1500m
200 to 500 ft
< 800m
< 200 ft
Symbols :   Thunderstorms  Fog  Heavy snow  Heavy precipitations  Wind > 20 kt






- Airport Elevation : 5900 ft


KTRK - Truckee Tahoe

CURRENT METAR :
  • 090215Z AUTO 00000KT 10SM CLR 23/13 A3020 RMK AO2

EXPIRED METARs :
  • 090155Z AUTO 26003KT 10SM CLR 23/13 A3020 RMK AO2 LTG DSNT N AND NW
  • 090135Z AUTO 24005G08KT 10SM -RA SCT090 SCT110 21/13 A3019 RMK AO2 LTG DSNT N AND NE
  • 090115Z AUTO 27008KT 10SM SCT090 SCT120 25/10 A3019 RMK AO2 LTG DSNT N
  • 090050Z 23009KT 10SM VCTS BKN110 26/10 A3019
  • 082350Z 27010G13KT 10SM SCT110 26/09 A3019

TAF KTRK
Valid from the 09 at 00:00 until the 10 at 00:00 UTC


082326Z 0900/0924 28012G20KT P6SM VCTS SCT080CB
FM090300 VRB03KT P6SM FEW120
FM091000 00000KT 5SM BR VCFG SKC
KZOA FIR / North America



MET'MAP, your aeronautical weather chart ! - Copyright ORBIFLY December 2007 - Disclaimer

ORBIFLY MET'MAP TEAM :

Programming & Development : Alexandra Zaïnal
Concept & original design : Baudouin d'Aumeries
Assistance for programming : Marc-Olivier Méhu
Technical & hardware support : Manuel Goepfert

Contact : metmap@orbifly.com




SOURCES & CREDITS :

   NOAA       Earth
Advisory